Pagrindinis puslapis
METAR-TAF:

METAR-TAF

Oro uostai :

Taifas, Saudo Arabija

platuma: 21-29N, ilguma: 040-33E, Aukštis: 1478 m

Dabartinis oras

Ataskaita buvo paskelbta 22 minutes, ne 13:00 UTC
Vėjas 17 kt iš Vakarų/Šiaurės Vakarų
Temperatūra 30°C
Drėgmė 15%
Slėgis 1016 hPa
Matomumas 10 km arba daugiau
nėra debesų žemiau 1500 m ir nėra kamuolinių lietaus debesų

METAR: OETF 201300Z 30017KT CAVOK 30/01 Q1016 NOSIG

Laikas: 16:22 (13:22 UTC)

Prognozė

Ataskaita buvo paskelbta 2 valandos ir 22 minutes, ne 11:00 UTC
Prognozė galioja nuo 20 metu 12 UTC su 21 metu 18 UTC
Vėjas 16 kt iš Vakarų/Šiaurės Vakarų
Matomumas 10 km arba daugiau
Mažai debesys ne aukštis 3000 ft
Tapsmas
nuo 20 metu 18 UTC su 20 metu 20 UTC
Vėjas 6 kt iš Vakarų/Pietvakarių
Matomumas 10 km arba daugiau
nėra debesų žemiau 1500 m ir nėra kamuolinių lietaus debesų
Tapsmas
nuo 21 metu 06 UTC su 21 metu 08 UTC
Vėjas 16 kt iš Vakarų

TAF: OETF 201100Z 2012/2118 29016KT 9999 FEW030 BECMG 2018/2020 25006KT CAVOK BECMG 2106/2108 28016KT

Orai ataskaitas ir orų prognozės (METAR, TAF).

turimą stotys yra geltonos ir raudonos taškus žemėlapyje.

Perkelti pele per norėdami pamatyti stoties vardą.

Tada spustelėkite, norėdami matyti oro stebėjimo ir prognozės.

Norėdami pakeisti žemėlapį: spustelėkite ant žalios mygtukų su juodo kryžiaus žemyn,; žalią mygtuką su brūkšneliu, jei norite nutolinti; arba žalių rodyklių gretimoms žemėlapius.


METAR-TAF: